DLH9PZ LIMC-EDDF
Flight info
| Callsign | DLH9PZ |
|---|---|
| Flight time | 0h 52m |
| Altitude | 32000 |
| Route | PEPAG DCT ABESI N851 UTAVO DCT ROLSA DCT LADOL T163 EMPAX EMPAX5C |
| Aircraft | A321/M-SDE3FGHIRWY/LB1 |
Departure
| Time | 2026-05-05 06:39 |
|---|---|
| Airport | Milan Malpensa International Airport (LIMC) |
Arrival
| Time | 2026-05-05 07:32 |
|---|---|
| Airport | Frankfurt Main Airport (EDDF) |
| Time | Latitude | Longitude | Altitude | Speed | Heading |
|---|---|---|---|---|---|
| 2026-05-05 06:03 | 45.63010 | 8.71473 | 739 ft | 0 kts | 349° |
| 2026-05-05 06:29 | 45.62996 | 8.71477 | 741 ft | 4 kts | 349° |
| 2026-05-05 06:29 | 45.62970 | 8.71484 | 740 ft | 3 kts | 349° |
| 2026-05-05 06:30 | 45.62949 | 8.71488 | 740 ft | 4 kts | 7° |
| 2026-05-05 06:30 | 45.62927 | 8.71474 | 739 ft | 3 kts | 49° |
| 2026-05-05 06:30 | 45.62934 | 8.71495 | 739 ft | 4 kts | 72° |
| 2026-05-05 06:30 | 45.62938 | 8.71533 | 741 ft | 4 kts | 84° |
| 2026-05-05 06:31 | 45.62941 | 8.71571 | 741 ft | 4 kts | 82° |
| 2026-05-05 06:31 | 45.62944 | 8.71596 | 739 ft | 0 kts | 79° |
| 2026-05-05 06:33 | 45.62946 | 8.71612 | 741 ft | 5 kts | 79° |
| 2026-05-05 06:33 | 45.62956 | 8.71689 | 741 ft | 11 kts | 79° |
| 2026-05-05 06:34 | 45.62973 | 8.71810 | 740 ft | 12 kts | 79° |
| 2026-05-05 06:34 | 45.62987 | 8.71918 | 740 ft | 10 kts | 79° |
| 2026-05-05 06:34 | 45.62992 | 8.72010 | 741 ft | 10 kts | 105° |
| 2026-05-05 06:34 | 45.62919 | 8.72067 | 741 ft | 16 kts | 168° |
| 2026-05-05 06:35 | 45.62813 | 8.72096 | 741 ft | 15 kts | 169° |
| 2026-05-05 06:35 | 45.62712 | 8.72124 | 741 ft | 17 kts | 169° |
| 2026-05-05 06:35 | 45.62598 | 8.72155 | 741 ft | 17 kts | 169° |
| 2026-05-05 06:35 | 45.62479 | 8.72190 | 741 ft | 20 kts | 168° |
| 2026-05-05 06:36 | 45.62330 | 8.72230 | 741 ft | 21 kts | 169° |
| 2026-05-05 06:36 | 45.62194 | 8.72267 | 741 ft | 19 kts | 169° |
| 2026-05-05 06:36 | 45.62067 | 8.72301 | 741 ft | 20 kts | 169° |
| 2026-05-05 06:36 | 45.61937 | 8.72338 | 742 ft | 18 kts | 169° |
| 2026-05-05 06:37 | 45.61821 | 8.72370 | 742 ft | 16 kts | 169° |
| 2026-05-05 06:37 | 45.61715 | 8.72398 | 742 ft | 16 kts | 169° |
| 2026-05-05 06:37 | 45.61608 | 8.72428 | 741 ft | 15 kts | 169° |
| 2026-05-05 06:37 | 45.61511 | 8.72456 | 740 ft | 14 kts | 169° |
| 2026-05-05 06:38 | 45.61438 | 8.72516 | 741 ft | 12 kts | 121° |
| 2026-05-05 06:38 | 45.61433 | 8.72627 | 739 ft | 11 kts | 79° |
| 2026-05-05 06:38 | 45.61464 | 8.72694 | 743 ft | 6 kts | 36° |
| 2026-05-05 06:38 | 45.61493 | 8.72708 | 743 ft | 7 kts | 9° |
| 2026-05-05 06:39 | 45.61706 | 8.72658 | 744 ft | 65 kts | 349° |
| 2026-05-05 06:39 | 45.62375 | 8.72472 | 740 ft | 129 kts | 348° |
| 2026-05-05 06:39 | 45.63432 | 8.72180 | 799 ft | 173 kts | 349° |
| 2026-05-05 06:39 | 45.64573 | 8.71929 | 1649 ft | 162 kts | 351° |
| 2026-05-05 06:40 | 45.65646 | 8.71395 | 2262 ft | 169 kts | 332° |
| 2026-05-05 06:40 | 45.66720 | 8.70481 | 2533 ft | 191 kts | 329° |
| 2026-05-05 06:40 | 45.67900 | 8.69410 | 2813 ft | 209 kts | 327° |
| 2026-05-05 06:40 | 45.69064 | 8.68060 | 3150 ft | 224 kts | 321° |
| 2026-05-05 06:41 | 45.70266 | 8.66577 | 3633 ft | 231 kts | 320° |
| 2026-05-05 06:41 | 45.71502 | 8.65060 | 4154 ft | 238 kts | 321° |
| 2026-05-05 06:41 | 45.72886 | 8.63791 | 4755 ft | 236 kts | 345° |
| 2026-05-05 06:41 | 45.74491 | 8.63886 | 5312 ft | 235 kts | 25° |
| 2026-05-05 06:42 | 45.75692 | 8.65395 | 5878 ft | 232 kts | 59° |
| 2026-05-05 06:42 | 45.76515 | 8.67384 | 6449 ft | 233 kts | 63° |
| 2026-05-05 06:42 | 45.77357 | 8.69379 | 7034 ft | 235 kts | 63° |
| 2026-05-05 06:42 | 45.78089 | 8.71475 | 7514 ft | 236 kts | 78° |
| 2026-05-05 06:43 | 45.78249 | 8.73784 | 8034 ft | 233 kts | 99° |
| 2026-05-05 06:43 | 45.77798 | 8.76043 | 8298 ft | 244 kts | 120° |
| 2026-05-05 06:43 | 45.76789 | 8.78120 | 8581 ft | 262 kts | 128° |
| 2026-05-05 06:43 | 45.75689 | 8.80244 | 9172 ft | 269 kts | 128° |
| 2026-05-05 06:44 | 45.74578 | 8.82421 | 9835 ft | 273 kts | 128° |
| 2026-05-05 06:44 | 45.73446 | 8.84653 | 10269 ft | 286 kts | 129° |
| 2026-05-05 06:44 | 45.72232 | 8.87042 | 10405 ft | 307 kts | 128° |
| 2026-05-05 06:44 | 45.70933 | 8.89603 | 10528 ft | 328 kts | 128° |
| 2026-05-05 06:45 | 45.69565 | 8.92305 | 10796 ft | 341 kts | 128° |
| 2026-05-05 06:45 | 45.68167 | 8.95073 | 11307 ft | 346 kts | 128° |
| 2026-05-05 06:45 | 45.66752 | 8.97881 | 11886 ft | 350 kts | 128° |
| 2026-05-05 06:45 | 45.65554 | 9.00941 | 12451 ft | 358 kts | 116° |
| 2026-05-05 06:46 | 45.64827 | 9.04371 | 13024 ft | 365 kts | 103° |
| 2026-05-05 06:46 | 45.64764 | 9.08032 | 13604 ft | 375 kts | 85° |
| 2026-05-05 06:46 | 45.65546 | 9.11632 | 14100 ft | 386 kts | 65° |
| 2026-05-05 06:46 | 45.67164 | 9.14675 | 14555 ft | 397 kts | 44° |
| 2026-05-05 06:47 | 45.69520 | 9.16770 | 15018 ft | 405 kts | 21° |
| 2026-05-05 06:47 | 45.72292 | 9.17509 | 15474 ft | 410 kts | 359° |
| 2026-05-05 06:47 | 45.75097 | 9.16831 | 15952 ft | 411 kts | 343° |
| 2026-05-05 06:47 | 45.77857 | 9.15705 | 16468 ft | 414 kts | 342° |
| 2026-05-05 06:48 | 45.80634 | 9.14550 | 16961 ft | 417 kts | 342° |
| 2026-05-05 06:48 | 45.83428 | 9.13378 | 17451 ft | 420 kts | 342° |
| 2026-05-05 06:48 | 45.86245 | 9.12198 | 17895 ft | 423 kts | 342° |
| 2026-05-05 06:48 | 45.89079 | 9.11013 | 18331 ft | 426 kts | 342° |
| 2026-05-05 06:49 | 45.91936 | 9.09820 | 18755 ft | 428 kts | 342° |
| 2026-05-05 06:49 | 45.94809 | 9.08626 | 19138 ft | 431 kts | 342° |
| 2026-05-05 06:49 | 45.97706 | 9.07455 | 19531 ft | 434 kts | 346° |
| 2026-05-05 06:49 | 46.00697 | 9.06754 | 19938 ft | 437 kts | 353° |
| 2026-05-05 06:50 | 46.03724 | 9.06267 | 20354 ft | 439 kts | 353° |
| 2026-05-05 06:50 | 46.06767 | 9.05774 | 20779 ft | 441 kts | 353° |
| 2026-05-05 06:50 | 46.09831 | 9.05278 | 21173 ft | 444 kts | 353° |
| 2026-05-05 06:50 | 46.12912 | 9.04778 | 21598 ft | 446 kts | 353° |
| 2026-05-05 06:51 | 46.16005 | 9.04276 | 21994 ft | 449 kts | 353° |
| 2026-05-05 06:51 | 46.19118 | 9.03797 | 22382 ft | 451 kts | 353° |
| 2026-05-05 06:51 | 46.22256 | 9.03363 | 22777 ft | 454 kts | 353° |
| 2026-05-05 06:51 | 46.25402 | 9.02957 | 23281 ft | 454 kts | 353° |
| 2026-05-05 06:52 | 46.28554 | 9.02561 | 23699 ft | 456 kts | 353° |
| 2026-05-05 06:52 | 46.31722 | 9.02162 | 24036 ft | 458 kts | 353° |
| 2026-05-05 06:52 | 46.34898 | 9.01752 | 24348 ft | 460 kts | 353° |
| 2026-05-05 06:52 | 46.38090 | 9.01329 | 24692 ft | 462 kts | 353° |
| 2026-05-05 06:53 | 46.41298 | 9.00898 | 25020 ft | 464 kts | 353° |
| 2026-05-05 06:53 | 46.44518 | 9.00461 | 25328 ft | 466 kts | 353° |
| 2026-05-05 06:53 | 46.47756 | 9.00023 | 25635 ft | 468 kts | 353° |
| 2026-05-05 06:53 | 46.51003 | 8.99582 | 25958 ft | 470 kts | 353° |
| 2026-05-05 06:54 | 46.54267 | 8.99141 | 26285 ft | 472 kts | 353° |
| 2026-05-05 06:54 | 46.57551 | 8.98698 | 26594 ft | 474 kts | 353° |
| 2026-05-05 06:54 | 46.60843 | 8.98250 | 26910 ft | 476 kts | 353° |
| 2026-05-05 06:54 | 46.64147 | 8.97800 | 27218 ft | 477 kts | 353° |
| 2026-05-05 06:55 | 46.67457 | 8.97351 | 27518 ft | 479 kts | 353° |
| 2026-05-05 06:55 | 46.70782 | 8.96900 | 27798 ft | 481 kts | 353° |
| 2026-05-05 06:55 | 46.74119 | 8.96444 | 28089 ft | 483 kts | 353° |
| 2026-05-05 06:55 | 46.77472 | 8.95986 | 28335 ft | 485 kts | 353° |
| 2026-05-05 06:56 | 46.80834 | 8.95529 | 28559 ft | 487 kts | 353° |
| 2026-05-05 06:56 | 46.84211 | 8.95072 | 28810 ft | 488 kts | 353° |
| 2026-05-05 06:56 | 46.87590 | 8.94616 | 29052 ft | 488 kts | 353° |
| 2026-05-05 06:56 | 46.90972 | 8.94157 | 29317 ft | 487 kts | 352° |
| 2026-05-05 06:57 | 46.94345 | 8.93699 | 29653 ft | 486 kts | 352° |
| 2026-05-05 06:57 | 46.97708 | 8.93240 | 29978 ft | 485 kts | 352° |
| 2026-05-05 06:57 | 47.01070 | 8.92777 | 30206 ft | 485 kts | 352° |
| 2026-05-05 06:57 | 47.04429 | 8.92312 | 30425 ft | 485 kts | 352° |
| 2026-05-05 06:58 | 47.07790 | 8.91849 | 30661 ft | 486 kts | 352° |
| 2026-05-05 06:58 | 47.11168 | 8.91385 | 30879 ft | 487 kts | 352° |
| 2026-05-05 06:58 | 47.14540 | 8.90919 | 31111 ft | 487 kts | 352° |
| 2026-05-05 06:58 | 47.17921 | 8.90449 | 31372 ft | 487 kts | 352° |
| 2026-05-05 06:59 | 47.21297 | 8.89979 | 31626 ft | 488 kts | 352° |
| 2026-05-05 06:59 | 47.24677 | 8.89507 | 31850 ft | 488 kts | 352° |
| 2026-05-05 06:59 | 47.28051 | 8.89057 | 31920 ft | 485 kts | 354° |
| 2026-05-05 07:00 | 47.34786 | 8.89336 | 31928 ft | 484 kts | 1° |
| 2026-05-05 07:00 | 47.41511 | 8.89833 | 31931 ft | 484 kts | 1° |
| 2026-05-05 07:01 | 47.48232 | 8.90307 | 31926 ft | 484 kts | 1° |
| 2026-05-05 07:01 | 47.54996 | 8.90783 | 31916 ft | 483 kts | 1° |
| 2026-05-05 07:02 | 47.61712 | 8.91274 | 31901 ft | 483 kts | 1° |
| 2026-05-05 07:02 | 47.68388 | 8.91778 | 31887 ft | 483 kts | 1° |
| 2026-05-05 07:03 | 47.75098 | 8.92275 | 31885 ft | 483 kts | 1° |
| 2026-05-05 07:03 | 47.81807 | 8.92762 | 31889 ft | 482 kts | 1° |
| 2026-05-05 07:04 | 47.88509 | 8.93248 | 31884 ft | 482 kts | 1° |
| 2026-05-05 07:04 | 47.95199 | 8.93747 | 31891 ft | 481 kts | 1° |
| 2026-05-05 07:05 | 48.01879 | 8.94249 | 31902 ft | 481 kts | 1° |
| 2026-05-05 07:05 | 48.07479 | 8.94658 | 31874 ft | 481 kts | 1° |
| 2026-05-05 07:06 | 48.14167 | 8.95147 | 31875 ft | 481 kts | 1° |
| 2026-05-05 07:06 | 48.20850 | 8.95778 | 31880 ft | 481 kts | 3° |
| 2026-05-05 07:07 | 48.27501 | 8.96830 | 31878 ft | 481 kts | 5° |
| 2026-05-05 07:07 | 48.34159 | 8.97984 | 31882 ft | 481 kts | 4° |
| 2026-05-05 07:08 | 48.40807 | 8.99034 | 31563 ft | 480 kts | 4° |
| 2026-05-05 07:08 | 48.44080 | 8.99525 | 31319 ft | 479 kts | 4° |
| 2026-05-05 07:08 | 48.47403 | 9.00018 | 30685 ft | 481 kts | 4° |
| 2026-05-05 07:08 | 48.50719 | 9.00509 | 30150 ft | 476 kts | 4° |
| 2026-05-05 07:09 | 48.54002 | 9.00999 | 29541 ft | 472 kts | 4° |
| 2026-05-05 07:09 | 48.57252 | 9.01491 | 28962 ft | 467 kts | 4° |
| 2026-05-05 07:09 | 48.60471 | 9.01988 | 28370 ft | 462 kts | 5° |
| 2026-05-05 07:09 | 48.63654 | 9.02497 | 27782 ft | 458 kts | 5° |
| 2026-05-05 07:10 | 48.66795 | 9.03122 | 27204 ft | 454 kts | 7° |
| 2026-05-05 07:10 | 48.69905 | 9.03853 | 26627 ft | 450 kts | 8° |
| 2026-05-05 07:10 | 48.72981 | 9.04640 | 26056 ft | 446 kts | 8° |
| 2026-05-05 07:10 | 48.76028 | 9.05438 | 25478 ft | 443 kts | 8° |
| 2026-05-05 07:11 | 48.79056 | 9.06220 | 24919 ft | 439 kts | 8° |
| 2026-05-05 07:11 | 48.82059 | 9.06974 | 24357 ft | 436 kts | 8° |
| 2026-05-05 07:11 | 48.85084 | 9.07709 | 23791 ft | 433 kts | 7° |
| 2026-05-05 07:11 | 48.88007 | 9.08402 | 23205 ft | 430 kts | 7° |
| 2026-05-05 07:12 | 48.90959 | 9.08995 | 22634 ft | 425 kts | 5° |
| 2026-05-05 07:12 | 48.93882 | 9.09443 | 22107 ft | 419 kts | 4° |
| 2026-05-05 07:12 | 48.96775 | 9.09807 | 21582 ft | 415 kts | 3° |
| 2026-05-05 07:12 | 48.99634 | 9.10146 | 21074 ft | 410 kts | 3° |
| 2026-05-05 07:13 | 49.02448 | 9.10492 | 20570 ft | 406 kts | 4° |
| 2026-05-05 07:13 | 49.05311 | 9.10863 | 20053 ft | 419 kts | 4° |
| 2026-05-05 07:13 | 49.08227 | 9.11259 | 19528 ft | 421 kts | 5° |
| 2026-05-05 07:13 | 49.11140 | 9.11667 | 19004 ft | 419 kts | 5° |
| 2026-05-05 07:14 | 49.14032 | 9.12079 | 18479 ft | 417 kts | 5° |
| 2026-05-05 07:14 | 49.16910 | 9.12498 | 17937 ft | 414 kts | 5° |
| 2026-05-05 07:14 | 49.19760 | 9.12916 | 17407 ft | 410 kts | 5° |
| 2026-05-05 07:14 | 49.22587 | 9.13328 | 16900 ft | 406 kts | 5° |
| 2026-05-05 07:15 | 49.25388 | 9.13735 | 16410 ft | 403 kts | 5° |
| 2026-05-05 07:15 | 49.28165 | 9.14173 | 15894 ft | 400 kts | 8° |
| 2026-05-05 07:15 | 49.30875 | 9.15053 | 15356 ft | 397 kts | 13° |
| 2026-05-05 07:15 | 49.33549 | 9.16006 | 14807 ft | 393 kts | 12° |
| 2026-05-05 07:16 | 49.36201 | 9.16945 | 14275 ft | 390 kts | 12° |
| 2026-05-05 07:16 | 49.38836 | 9.17876 | 13752 ft | 387 kts | 12° |
| 2026-05-05 07:16 | 49.41442 | 9.18799 | 13161 ft | 383 kts | 12° |
| 2026-05-05 07:16 | 49.44023 | 9.19714 | 12647 ft | 379 kts | 12° |
| 2026-05-05 07:17 | 49.46584 | 9.20621 | 12131 ft | 376 kts | 12° |
| 2026-05-05 07:17 | 49.49125 | 9.21518 | 11624 ft | 373 kts | 12° |
| 2026-05-05 07:17 | 49.51647 | 9.22406 | 11127 ft | 370 kts | 12° |
| 2026-05-05 07:17 | 49.54145 | 9.23283 | 10637 ft | 367 kts | 12° |
| 2026-05-05 07:18 | 49.56623 | 9.24149 | 10150 ft | 364 kts | 12° |
| 2026-05-05 07:18 | 49.59079 | 9.25005 | 9896 ft | 362 kts | 12° |
| 2026-05-05 07:18 | 49.61533 | 9.25854 | 9867 ft | 360 kts | 12° |
| 2026-05-05 07:18 | 49.63915 | 9.26666 | 9872 ft | 340 kts | 12° |
| 2026-05-05 07:19 | 49.66160 | 9.27433 | 9875 ft | 321 kts | 12° |
| 2026-05-05 07:19 | 49.68286 | 9.28159 | 9874 ft | 306 kts | 12° |
| 2026-05-05 07:19 | 49.70352 | 9.28863 | 9871 ft | 303 kts | 12° |
| 2026-05-05 07:19 | 49.72406 | 9.29565 | 9875 ft | 302 kts | 12° |
| 2026-05-05 07:20 | 49.74460 | 9.30267 | 9874 ft | 302 kts | 12° |
| 2026-05-05 07:20 | 49.76515 | 9.30971 | 9879 ft | 302 kts | 12° |
| 2026-05-05 07:20 | 49.78592 | 9.31382 | 9859 ft | 302 kts | 355° |
| 2026-05-05 07:20 | 49.80644 | 9.30826 | 9607 ft | 298 kts | 345° |
| 2026-05-05 07:21 | 49.82654 | 9.30046 | 9340 ft | 297 kts | 344° |
| 2026-05-05 07:21 | 49.84656 | 9.29243 | 9077 ft | 297 kts | 344° |
| 2026-05-05 07:21 | 49.86652 | 9.28437 | 8815 ft | 296 kts | 344° |
| 2026-05-05 07:21 | 49.88636 | 9.27634 | 8552 ft | 294 kts | 344° |
| 2026-05-05 07:22 | 49.90618 | 9.26832 | 8304 ft | 293 kts | 344° |
| 2026-05-05 07:22 | 49.92588 | 9.26036 | 8045 ft | 292 kts | 344° |
| 2026-05-05 07:22 | 49.94552 | 9.25240 | 7784 ft | 291 kts | 344° |
| 2026-05-05 07:22 | 49.96505 | 9.24448 | 7535 ft | 290 kts | 344° |
| 2026-05-05 07:23 | 49.98452 | 9.23658 | 7298 ft | 289 kts | 344° |
| 2026-05-05 07:23 | 50.00393 | 9.22871 | 7048 ft | 288 kts | 344° |
| 2026-05-05 07:23 | 50.02324 | 9.22088 | 6796 ft | 286 kts | 344° |
| 2026-05-05 07:23 | 50.04249 | 9.21306 | 6560 ft | 285 kts | 344° |
| 2026-05-05 07:24 | 50.06167 | 9.20522 | 6317 ft | 284 kts | 342° |
| 2026-05-05 07:24 | 50.07886 | 9.19140 | 6063 ft | 277 kts | 315° |
| 2026-05-05 07:24 | 50.08984 | 9.16756 | 5814 ft | 270 kts | 290° |
| 2026-05-05 07:24 | 50.09582 | 9.14051 | 5562 ft | 265 kts | 284° |
| 2026-05-05 07:25 | 50.10108 | 9.11329 | 5312 ft | 260 kts | 284° |
| 2026-05-05 07:25 | 50.10612 | 9.08645 | 5057 ft | 256 kts | 284° |
| 2026-05-05 07:25 | 50.11108 | 9.05970 | 4803 ft | 251 kts | 284° |
| 2026-05-05 07:25 | 50.11579 | 9.03380 | 4550 ft | 246 kts | 284° |
| 2026-05-05 07:26 | 50.12031 | 9.00872 | 4291 ft | 241 kts | 284° |
| 2026-05-05 07:26 | 50.12481 | 8.98350 | 4071 ft | 234 kts | 284° |
| 2026-05-05 07:26 | 50.12666 | 8.95915 | 3986 ft | 219 kts | 263° |
| 2026-05-05 07:26 | 50.12292 | 8.93748 | 3997 ft | 198 kts | 248° |
| 2026-05-05 07:27 | 50.11833 | 8.91794 | 4020 ft | 190 kts | 249° |
| 2026-05-05 07:27 | 50.11382 | 8.89866 | 4010 ft | 189 kts | 249° |
| 2026-05-05 07:27 | 50.10932 | 8.87947 | 4001 ft | 188 kts | 249° |
| 2026-05-05 07:27 | 50.10480 | 8.86026 | 3945 ft | 189 kts | 249° |
| 2026-05-05 07:28 | 50.10030 | 8.84110 | 3753 ft | 189 kts | 249° |
| 2026-05-05 07:28 | 50.09578 | 8.82192 | 3527 ft | 188 kts | 249° |
| 2026-05-05 07:28 | 50.09127 | 8.80277 | 3276 ft | 188 kts | 249° |
| 2026-05-05 07:28 | 50.08677 | 8.78370 | 3025 ft | 188 kts | 249° |
| 2026-05-05 07:29 | 50.08227 | 8.76459 | 2774 ft | 188 kts | 250° |
| 2026-05-05 07:29 | 50.07880 | 8.74494 | 2417 ft | 189 kts | 258° |
| 2026-05-05 07:29 | 50.07645 | 8.72485 | 2175 ft | 189 kts | 259° |
| 2026-05-05 07:29 | 50.07353 | 8.70515 | 1974 ft | 179 kts | 255° |
| 2026-05-05 07:30 | 50.06984 | 8.68779 | 1753 ft | 161 kts | 248° |
| 2026-05-05 07:30 | 50.06175 | 8.65685 | 1277 ft | 150 kts | 250° |
| 2026-05-05 07:30 | 50.05807 | 8.64163 | 1146 ft | 150 kts | 250° |
| 2026-05-05 07:31 | 50.05436 | 8.62650 | 904 ft | 149 kts | 250° |
| 2026-05-05 07:31 | 50.05087 | 8.61142 | 749 ft | 148 kts | 251° |
| 2026-05-05 07:31 | 50.04734 | 8.59635 | 562 ft | 148 kts | 250° |
| 2026-05-05 07:31 | 50.04378 | 8.58140 | 393 ft | 147 kts | 250° |
| 2026-05-05 07:32 | 50.04054 | 8.56775 | 361 ft | 118 kts | 250° |
| 2026-05-05 07:32 | 50.03846 | 8.55932 | 354 ft | 43 kts | 251° |
| 2026-05-05 07:32 | 50.03760 | 8.55546 | 351 ft | 38 kts | 250° |
| 2026-05-05 07:32 | 50.03694 | 8.55252 | 348 ft | 18 kts | 261° |
| 2026-05-05 07:33 | 50.03690 | 8.55051 | 343 ft | 19 kts | 276° |
| 2026-05-05 07:33 | 50.03717 | 8.54866 | 348 ft | 17 kts | 309° |
| 2026-05-05 07:33 | 50.03798 | 8.54907 | 352 ft | 15 kts | 67° |
| 2026-05-05 07:33 | 50.03835 | 8.55059 | 354 ft | 15 kts | 71° |
| 2026-05-05 07:34 | 50.03873 | 8.55219 | 357 ft | 16 kts | 69° |
| 2026-05-05 07:34 | 50.03915 | 8.55391 | 356 ft | 18 kts | 69° |
| 2026-05-05 07:34 | 50.03962 | 8.55588 | 354 ft | 21 kts | 70° |
| 2026-05-05 07:34 | 50.04015 | 8.55813 | 357 ft | 23 kts | 70° |
| 2026-05-05 07:35 | 50.04071 | 8.56043 | 359 ft | 23 kts | 69° |
| 2026-05-05 07:35 | 50.04128 | 8.56278 | 359 ft | 23 kts | 70° |
| 2026-05-05 07:35 | 50.04183 | 8.56517 | 361 ft | 23 kts | 70° |
| 2026-05-05 07:35 | 50.04227 | 8.56698 | 364 ft | 17 kts | 69° |
| 2026-05-05 07:36 | 50.04300 | 8.56813 | 363 ft | 16 kts | 15° |
| 2026-05-05 07:36 | 50.04410 | 8.56845 | 364 ft | 17 kts | 8° |
| 2026-05-05 07:36 | 50.04531 | 8.56883 | 359 ft | 19 kts | 13° |
| 2026-05-05 07:36 | 50.04647 | 8.56930 | 358 ft | 16 kts | 21° |
| 2026-05-05 07:37 | 50.04751 | 8.57004 | 363 ft | 15 kts | 24° |
| 2026-05-05 07:37 | 50.04829 | 8.57059 | 363 ft | 7 kts | 25° |
| 2026-05-05 07:37 | 50.04831 | 8.57122 | 363 ft | 7 kts | 112° |
| 2026-05-05 07:37 | 50.04817 | 8.57173 | 359 ft | 4 kts | 114° |
| 2026-05-05 07:38 | 50.04814 | 8.57180 | 362 ft | 0 kts | 114° |